»·PEaware :: N1718G KSNA-KLAS

N1718G :: KSNA-KLAS

FLIGHT INFORMATION

Flight Status: Arrived
Operator: Privately registered:
United States
More flights under this callsign
Pilot: Spencer M. (27733)
Aircraft: ECLIPSE 500
(EA50)
More flights by this aircraft type
Origin: KSNA John Wayne-Orange Co
United States
Destination: KLAS McCarran Intl
United States
More flights between these airports :: More routes between these airports
Route: +SLI V8 PDZ V442 APLES V394 DAG CLARR3
File this flight plan on PilotEdge
Remarks:
Altitude:
(Current/Filed)
21,000ft
Speed:
(Current/Filed)
290kts
Departed: 08-Sep-20 08:08 PM
Arrived: 08-Sep-20 09:11 PM
Distance/Time
Traveled:
196nm/1:03
Distance/Time
To Go:
Arrived

Flight Plot

Page will automatically refresh every two minutes.

Flight plan parsing failed; only flown route is shown


Map Options




Map Legend


Flown Route
Filed Route
Departure Airport
Arrival Airport
Navaid (VOR, NDB)
Fix

Horizontal Profiles

Position Reports

Time Latitude Longitude Heading Altitude Ground
Speed
08-Sep-20 19:53 33.674732 -117.871606 217 59ft 0kts
08-Sep-20 19:54 33.674732 -117.871606 217 59ft 0kts
08-Sep-20 19:55 33.674732 -117.871606 217 59ft 0kts
08-Sep-20 19:56 33.674732 -117.871606 217 59ft 0kts
08-Sep-20 19:57 33.674732 -117.871606 217 59ft 0kts
08-Sep-20 19:58 33.674732 -117.871606 217 59ft 0kts
08-Sep-20 19:59 33.674732 -117.871606 217 59ft 0kts
08-Sep-20 20:00 33.674724 -117.870921 25 59ft 5kts
08-Sep-20 20:01 33.676870 -117.869565 27 59ft 10kts
08-Sep-20 20:02 33.679572 -117.867968 14 59ft 11kts
08-Sep-20 20:03 33.681928 -117.866243 80 59ft 6kts
08-Sep-20 20:04 33.681920 -117.865997 102 59ft 0kts
08-Sep-20 20:05 33.681920 -117.865997 102 59ft 0kts
08-Sep-20 20:06 33.681787 -117.865656 118 59ft 6kts
08-Sep-20 20:07 33.672467 -117.870887 208 94ft 115kts
08-Sep-20 20:08 33.634166 -117.882241 186 1500ft 167kts
08-Sep-20 20:09 33.582787 -117.887484 186 3030ft 203kts
08-Sep-20 20:10 33.523226 -117.892869 186 4639ft 225kts
08-Sep-20 20:11 33.460737 -117.904127 226 6343ft 228kts
08-Sep-20 20:12 33.462398 -117.975662 281 8057ft 226kts
08-Sep-20 20:13 33.496898 -118.026162 353 9765ft 229kts
08-Sep-20 20:14 33.559653 -118.030877 352 11467ft 222kts
08-Sep-20 20:15 33.619685 -118.037105 352 13158ft 212kts
08-Sep-20 20:16 33.676662 -118.042875 352 14779ft 202kts
08-Sep-20 20:17 33.731488 -118.048270 352 16266ft 194kts
08-Sep-20 20:18 33.783425 -118.049409 28 17754ft 190kts
08-Sep-20 20:19 33.798964 -117.989083 62 19250ft 182kts
08-Sep-20 20:20 33.813968 -117.934061 62 20511ft 162kts
08-Sep-20 20:21 33.827817 -117.882199 63 20994ft 184kts
08-Sep-20 20:22 33.845391 -117.814930 65 20989ft 231kts
08-Sep-20 20:23 33.865577 -117.736489 66 20991ft 258kts
08-Sep-20 20:24 33.887493 -117.650923 66 20995ft 276kts
08-Sep-20 20:25 33.910512 -117.560771 67 20999ft 286kts
08-Sep-20 20:26 33.964221 -117.502521 21 20999ft 271kts
08-Sep-20 20:27 34.019588 -117.438333 38 21001ft 281kts
08-Sep-20 20:28 34.078619 -117.377747 32 21005ft 281kts
08-Sep-20 20:29 34.141043 -117.320338 32 21010ft 282kts
08-Sep-20 20:30 34.204276 -117.263511 31 21010ft 284kts
08-Sep-20 20:31 34.267646 -117.206759 31 21016ft 284kts
08-Sep-20 20:32 34.331315 -117.149696 31 21020ft 285kts
08-Sep-20 20:33 34.394964 -117.092543 31 21015ft 285kts
08-Sep-20 20:34 34.458438 -117.035438 31 21036ft 285kts
08-Sep-20 20:35 34.522340 -116.977847 30 21058ft 286kts
08-Sep-20 20:36 34.586070 -116.920308 30 21063ft 287kts
08-Sep-20 20:37 34.650255 -116.862246 30 21054ft 289kts
08-Sep-20 20:38 34.714528 -116.804006 30 21054ft 289kts
08-Sep-20 20:39 34.779202 -116.745271 30 21021ft 291kts
08-Sep-20 20:40 34.844063 -116.686235 30 21008ft 291kts
08-Sep-20 20:41 34.908751 -116.627210 30 21008ft 290kts
08-Sep-20 20:42 34.971236 -116.565701 45 21014ft 296kts
08-Sep-20 20:43 35.016885 -116.489119 45 21016ft 263kts
08-Sep-20 20:44 35.056693 -116.419129 45 21026ft 240kts
08-Sep-20 20:45 35.092854 -116.353631 45 21030ft 228kts
08-Sep-20 20:46 35.129749 -116.292791 29 20973ft 214kts
08-Sep-20 20:47 35.177665 -116.242006 33 20207ft 240kts
08-Sep-20 20:48 35.228772 -116.185525 34 19431ft 252kts
08-Sep-20 20:49 35.281273 -116.126677 34 18560ft 261kts
08-Sep-20 20:50 35.336404 -116.064640 35 17278ft 275kts
08-Sep-20 20:51 35.393420 -116.000279 35 15989ft 281kts
08-Sep-20 20:52 35.450589 -115.934531 36 14723ft 283kts
08-Sep-20 20:53 35.507698 -115.869290 35 13635ft 279kts
08-Sep-20 20:54 35.563485 -115.806240 35 13072ft 258kts
08-Sep-20 20:55 35.613912 -115.749373 34 12984ft 238kts
08-Sep-20 20:56 35.661376 -115.695857 34 12983ft 226kts
08-Sep-20 20:57 35.703824 -115.642313 37 12988ft 210kts
08-Sep-20 20:58 35.744543 -115.589670 37 12990ft 217kts
08-Sep-20 20:59 35.787224 -115.534334 37 12989ft 227kts
08-Sep-20 21:00 35.831573 -115.477134 37 12568ft 232kts
08-Sep-20 21:02 35.872673 -115.420620 45 11540ft 217kts
08-Sep-20 21:03 35.904172 -115.362531 44 10629ft 187kts
08-Sep-20 21:04 35.931413 -115.310765 50 9677ft 175kts
08-Sep-20 21:05 35.954770 -115.265456 46 8628ft 128kts
08-Sep-20 21:06 35.974639 -115.234807 37 7271ft 105kts
08-Sep-20 21:07 35.998406 -115.215147 26 5714ft 102kts
08-Sep-20 21:08 36.023524 -115.200586 27 4412ft 99kts
08-Sep-20 21:09 36.048692 -115.185992 25 3024ft 98kts
08-Sep-20 21:10 36.072257 -115.172261 27 2360ft 91kts
08-Sep-20 21:11 36.086865 -115.163854 24 2184ft 15kts
08-Sep-20 21:12 36.089679 -115.164226 295 2184ft 9kts
08-Sep-20 21:13 36.087202 -115.165974 204 2184ft 15kts
08-Sep-20 21:14 36.085757 -115.167795 288 2184ft 0kts

Navigation Log

Ident Type
Flight plan parsing failed, navigation log unavailable